createdAt,value
2022-10-10T06:07:07.003Z,6.90
2022-10-10T06:09:33.986Z,7.00
2022-10-10T06:12:00.824Z,7.10
2022-10-10T06:14:27.679Z,7.10
2022-10-10T06:16:54.520Z,7.10
2022-10-10T06:19:21.558Z,7.10
2022-10-10T06:21:49.686Z,7.10
2022-10-10T06:24:16.587Z,7.00
2022-10-10T06:26:43.489Z,7.10
2022-10-10T06:29:10.338Z,7.10
2022-10-10T06:31:39.635Z,7.20
2022-10-10T06:34:06.876Z,7.30
2022-10-10T06:36:33.911Z,7.30
2022-10-10T06:39:00.793Z,7.40
2022-10-10T06:41:27.728Z,7.40
2022-10-10T06:43:54.889Z,7.60
2022-10-10T06:46:21.724Z,7.60
2022-10-10T06:48:48.771Z,7.70
2022-10-10T06:51:17.333Z,7.70
2022-10-10T06:53:45.662Z,7.70
2022-10-10T06:56:26.345Z,7.70
2022-10-10T06:58:54.247Z,7.70
2022-10-10T07:01:23.215Z,7.60
2022-10-10T07:03:50.271Z,7.60
2022-10-10T07:06:18.358Z,7.60
2022-10-10T07:08:49.870Z,7.70
2022-10-10T07:11:20.132Z,7.80
2022-10-10T07:13:47.104Z,7.80
2022-10-10T07:16:21.143Z,7.90
2022-10-10T07:18:48.164Z,8.00
2022-10-10T07:21:23.585Z,8.00
2022-10-10T07:23:51.015Z,8.10
2022-10-10T07:26:22.534Z,8.20
2022-10-10T07:28:50.304Z,8.30
2022-10-10T07:31:17.246Z,8.30
2022-10-10T07:33:50.391Z,8.40
2022-10-10T07:36:19.965Z,8.50
2022-10-10T07:38:52.239Z,8.70
2022-10-10T07:41:20.080Z,8.70
2022-10-10T07:43:48.479Z,8.80
2022-10-10T07:46:20.617Z,9.00
2022-10-10T07:48:51.316Z,9.00
2022-10-10T07:51:19.496Z,9.00
2022-10-10T07:53:49.454Z,9.10
2022-10-10T07:56:16.370Z,9.20
2022-10-10T07:58:58.089Z,9.20
2022-10-10T08:01:27.396Z,9.40
2022-10-10T08:04:00.613Z,9.50
2022-10-10T08:06:28.503Z,9.60
2022-10-10T08:08:57.440Z,9.70
2022-10-10T08:11:24.506Z,9.70
2022-10-10T08:13:53.187Z,9.80
2022-10-10T08:16:20.712Z,9.90
2022-10-10T08:18:47.595Z,10.00
2022-10-10T08:21:16.433Z,10.00
2022-10-10T08:23:46.952Z,10.20
2022-10-10T08:26:16.473Z,10.30
2022-10-10T08:28:49.195Z,10.30
2022-10-10T08:31:19.085Z,10.50
2022-10-10T08:33:52.966Z,10.50
2022-10-10T08:36:24.263Z,10.60
2022-10-10T08:38:53.515Z,10.70
2022-10-10T08:41:44.507Z,11.00
2022-10-10T08:44:33.511Z,11.10
2022-10-10T08:47:06.616Z,11.30
2022-10-10T08:50:01.071Z,11.40
2022-10-10T08:52:51.575Z,11.40
2022-10-10T08:55:36.034Z,11.50
2022-10-10T08:58:35.941Z,11.70
2022-10-10T09:01:16.645Z,11.70
2022-10-10T09:03:50.331Z,11.70
2022-10-10T09:06:32.057Z,11.80
2022-10-10T09:09:22.225Z,11.90
2022-10-10T09:12:17.972Z,11.90
2022-10-10T09:15:12.137Z,11.80
2022-10-10T09:17:50.674Z,12.10
2022-10-10T09:21:01.677Z,12.20
2022-10-10T09:23:39.965Z,12.10
2022-10-10T09:26:13.380Z,12.30
2022-10-10T09:29:02.064Z,12.40
2022-10-10T09:31:35.289Z,12.60
2022-10-10T09:34:35.122Z,12.60
2022-10-10T09:37:03.809Z,12.60
2022-10-10T09:39:44.530Z,12.50
2022-10-10T09:42:15.083Z,12.40
2022-10-10T09:44:43.459Z,12.50
2022-10-10T09:47:15.557Z,12.50
2022-10-10T09:49:44.453Z,12.60
2022-10-10T09:52:25.433Z,12.70
2022-10-10T09:55:02.243Z,12.70
2022-10-10T09:57:35.538Z,12.70
2022-10-10T10:00:27.369Z,12.90
2022-10-10T10:03:16.921Z,13.20
2022-10-10T10:06:02.653Z,13.40
2022-10-10T10:08:33.282Z,13.60
2022-10-10T10:11:01.438Z,13.70
2022-10-10T10:13:36.201Z,13.80
2022-10-10T10:16:13.211Z,13.90
2022-10-10T10:18:48.221Z,13.90
2022-10-10T10:21:23.572Z,14.00
2022-10-10T10:23:55.817Z,14.30
2022-10-10T10:26:45.199Z,13.90
2022-10-10T10:29:24.328Z,13.80
2022-10-10T10:32:03.498Z,13.70
2022-10-10T10:34:46.945Z,13.60
2022-10-10T10:38:00.718Z,13.60
2022-10-10T10:40:37.920Z,13.60
2022-10-10T10:43:16.756Z,13.70
2022-10-10T10:46:21.150Z,13.80
2022-10-10T10:49:18.764Z,13.90
2022-10-10T10:52:23.514Z,13.90
2022-10-10T10:55:21.017Z,14.00
2022-10-10T10:58:37.149Z,13.90
2022-10-10T11:01:23.985Z,13.90
2022-10-10T11:05:21.395Z,13.90
2022-10-10T11:08:06.586Z,14.20
2022-10-10T11:10:53.659Z,14.50
2022-10-10T11:13:47.916Z,14.50
2022-10-10T11:16:47.987Z,14.50
2022-10-10T11:19:17.398Z,14.60
2022-10-10T11:21:49.688Z,14.50
2022-10-10T11:24:51.495Z,14.60
2022-10-10T11:27:26.017Z,14.80
2022-10-10T11:30:05.734Z,14.80
2022-10-10T11:32:48.912Z,14.70
2022-10-10T11:35:29.392Z,14.80
2022-10-10T11:38:07.756Z,15.10
2022-10-10T11:40:49.346Z,15.00
2022-10-10T11:43:27.831Z,14.80
2022-10-10T11:46:03.267Z,14.80
2022-10-10T11:48:41.191Z,15.00
2022-10-10T11:51:27.614Z,14.90
2022-10-10T11:53:58.957Z,14.90
2022-10-10T11:56:33.652Z,15.00
2022-10-10T11:59:25.723Z,15.20
2022-10-10T12:04:37.789Z,15.30
2022-10-10T12:07:14.533Z,15.20
2022-10-10T12:09:47.272Z,15.30
2022-10-10T12:12:22.620Z,15.40
2022-10-10T12:14:54.621Z,15.30
2022-10-10T12:17:32.469Z,15.20
2022-10-10T12:20:37.179Z,15.30
2022-10-10T12:23:18.859Z,15.50
2022-10-10T12:25:47.746Z,15.70
2022-10-10T12:28:14.879Z,15.60
2022-10-10T12:31:18.476Z,15.70
2022-10-10T12:33:45.358Z,15.70
2022-10-10T12:36:21.396Z,15.70
2022-10-10T12:39:03.770Z,15.60
2022-10-10T12:41:48.383Z,15.40
2022-10-10T12:44:15.262Z,15.60
2022-10-10T12:46:43.110Z,15.70
2022-10-10T12:49:18.321Z,15.90
2022-10-10T12:52:01.395Z,15.90
2022-10-10T12:54:34.121Z,15.70
2022-10-10T12:57:12.825Z,15.70
2022-10-10T12:59:41.255Z,15.60
2022-10-10T13:02:20.508Z,15.80
2022-10-10T13:04:49.101Z,15.80
2022-10-10T13:07:19.452Z,15.70
2022-10-10T13:09:52.642Z,15.70
2022-10-10T13:12:28.313Z,15.70
2022-10-10T13:14:59.453Z,15.70
2022-10-10T13:17:41.372Z,15.50
2022-10-10T13:20:37.384Z,15.60
2022-10-10T13:23:14.142Z,15.50
2022-10-10T13:25:46.110Z,15.60
2022-10-10T13:28:18.356Z,15.60
2022-10-10T13:30:51.866Z,15.80
2022-10-10T13:33:23.532Z,15.80
2022-10-10T13:36:06.450Z,15.70
2022-10-10T13:38:36.722Z,15.80
2022-10-10T13:41:05.794Z,15.70
2022-10-10T13:43:33.506Z,15.60
2022-10-10T13:46:03.491Z,15.60
2022-10-10T13:48:36.522Z,15.70
2022-10-10T13:51:12.940Z,15.80
2022-10-10T13:53:46.443Z,15.70
2022-10-10T13:56:33.873Z,15.70
2022-10-10T13:59:26.417Z,15.60
2022-10-10T14:02:00.770Z,15.50
2022-10-10T14:04:46.632Z,15.50
2022-10-10T14:07:33.094Z,15.40
2022-10-10T14:10:09.751Z,15.40
2022-10-10T14:12:59.048Z,15.40
2022-10-10T14:15:42.437Z,15.40
2022-10-10T14:18:29.754Z,15.40
2022-10-10T14:20:59.100Z,15.40
2022-10-10T14:23:29.665Z,15.40
2022-10-10T14:25:57.920Z,15.40
2022-10-10T14:28:28.129Z,15.40
2022-10-10T14:30:55.633Z,15.40
2022-10-10T14:33:22.548Z,15.40
2022-10-10T14:35:51.906Z,15.40
2022-10-10T14:38:18.747Z,15.40
2022-10-10T14:40:47.950Z,15.30
2022-10-10T14:43:15.305Z,15.20
2022-10-10T14:45:42.395Z,15.20
2022-10-10T14:48:11.606Z,15.10
2022-10-10T14:50:44.664Z,15.10
2022-10-10T14:53:13.160Z,15.00
2022-10-10T14:55:46.236Z,15.10
2022-10-10T14:58:18.810Z,15.00
2022-10-10T15:00:46.733Z,14.90
2022-10-10T15:03:14.413Z,14.90
2022-10-10T15:05:41.868Z,14.80
2022-10-10T15:08:12.730Z,14.80
2022-10-10T15:10:44.029Z,14.70
2022-10-10T15:13:12.485Z,14.70
2022-10-10T15:15:39.742Z,14.70
2022-10-10T15:18:20.909Z,14.70
2022-10-10T15:20:53.909Z,14.60
2022-10-10T15:23:21.354Z,14.50
2022-10-10T15:25:48.322Z,14.50
2022-10-10T15:28:15.366Z,14.40
2022-10-10T15:30:46.319Z,14.30
2022-10-10T15:33:13.534Z,14.20
2022-10-10T15:36:19.547Z,14.20
2022-10-10T15:38:49.550Z,14.10
2022-10-10T15:41:19.437Z,14.10
2022-10-10T15:43:54.323Z,14.10
2022-10-10T15:46:30.476Z,14.10
2022-10-10T15:49:02.450Z,14.00
2022-10-10T15:51:31.563Z,14.00
2022-10-10T15:54:02.981Z,14.10
2022-10-10T15:56:30.956Z,14.00
2022-10-10T15:59:00.308Z,14.00
2022-10-10T16:01:32.871Z,14.00
2022-10-10T16:04:02.424Z,13.80
2022-10-10T16:06:31.910Z,13.80
2022-10-10T16:09:16.365Z,13.80
2022-10-10T16:11:46.321Z,13.80
2022-10-10T16:14:14.614Z,13.70
2022-10-10T16:16:41.537Z,13.60
2022-10-10T16:19:08.516Z,13.60
2022-10-10T16:21:35.595Z,13.60
2022-10-10T16:24:03.170Z,13.60
2022-10-10T16:26:33.111Z,13.60
2022-10-10T16:29:04.900Z,13.50
2022-10-10T16:31:35.263Z,13.50
2022-10-10T16:34:02.304Z,13.40
2022-10-10T16:36:31.788Z,13.40
2022-10-10T16:38:59.493Z,13.40
2022-10-10T16:41:48.762Z,13.20
2022-10-10T16:44:17.545Z,13.20
2022-10-10T16:46:44.735Z,13.20
2022-10-10T16:49:20.595Z,13.10
2022-10-10T16:51:47.423Z,13.10
2022-10-10T16:54:14.420Z,13.10
2022-10-10T16:56:41.942Z,13.00
2022-10-10T16:59:09.019Z,12.90
2022-10-10T17:01:36.150Z,13.00
2022-10-10T17:04:04.471Z,12.90
2022-10-10T17:06:37.421Z,12.80
2022-10-10T17:09:07.199Z,12.80
2022-10-10T17:11:34.872Z,12.70
2022-10-10T17:14:02.226Z,12.70
2022-10-10T17:19:24.564Z,12.70
2022-10-10T17:21:51.534Z,12.60
2022-10-10T17:24:19.726Z,12.60
2022-10-10T17:26:46.623Z,12.50
2022-10-10T17:29:17.219Z,12.40
2022-10-10T17:31:44.086Z,12.40
2022-10-10T17:34:19.739Z,12.30
2022-10-10T17:36:50.077Z,12.30
2022-10-10T17:39:19.615Z,12.30
2022-10-10T17:41:49.265Z,12.30
2022-10-10T17:44:19.387Z,12.20
2022-10-10T17:46:46.315Z,12.20
2022-10-10T17:49:15.600Z,12.20
2022-10-10T17:51:42.817Z,12.10
2022-10-10T17:54:10.476Z,12.10
2022-10-10T17:56:37.692Z,12.10
2022-10-10T17:59:06.859Z,12.10
2022-10-10T18:01:35.428Z,12.10
2022-10-10T18:04:02.446Z,12.10
2022-10-10T18:06:29.933Z,12.00
2022-10-10T18:08:59.793Z,12.10
2022-10-10T18:11:30.278Z,12.00
2022-10-10T18:14:00.712Z,12.00
2022-10-10T18:16:36.088Z,12.00
2022-10-10T18:19:07.722Z,11.90
2022-10-10T18:21:35.199Z,11.90
2022-10-10T18:24:02.100Z,11.90
2022-10-10T18:26:30.809Z,11.90
2022-10-10T18:28:58.636Z,12.00
2022-10-10T18:31:26.971Z,12.00
2022-10-10T18:33:54.294Z,12.00
2022-10-10T18:36:26.205Z,12.00
2022-10-10T18:38:53.480Z,11.90
2022-10-10T18:41:23.204Z,11.80
2022-10-10T18:43:51.772Z,11.70
2022-10-10T18:46:20.621Z,11.70
2022-10-10T18:48:52.778Z,11.70
2022-10-10T18:51:28.020Z,11.70
2022-10-10T18:54:01.822Z,11.70
2022-10-10T18:56:30.016Z,11.70
2022-10-10T18:58:59.208Z,11.60
2022-10-10T19:01:34.330Z,11.60
2022-10-10T19:04:04.339Z,11.50
2022-10-10T19:06:31.517Z,11.50
2022-10-10T19:09:02.822Z,11.40
2022-10-10T19:11:32.972Z,11.40
2022-10-10T19:14:01.913Z,11.40
2022-10-10T19:16:31.983Z,11.40
2022-10-10T19:19:03.678Z,11.30
2022-10-10T19:21:35.505Z,11.30
2022-10-10T19:24:06.010Z,11.30
2022-10-10T19:26:33.701Z,11.20
2022-10-10T19:29:06.993Z,11.10
2022-10-10T19:31:34.664Z,11.10
2022-10-10T19:34:01.953Z,11.20
2022-10-10T19:36:29.030Z,11.10
2022-10-10T19:38:56.335Z,11.20
2022-10-10T19:41:34.170Z,11.10
2022-10-10T19:44:05.514Z,11.10
2022-10-10T19:46:37.161Z,11.10
2022-10-10T19:49:07.642Z,11.10
2022-10-10T19:51:38.067Z,11.00
2022-10-10T19:54:06.379Z,11.00
2022-10-10T19:56:33.320Z,11.00
2022-10-10T19:59:04.853Z,10.90
2022-10-10T20:01:32.317Z,10.90
2022-10-10T20:03:59.401Z,10.90
2022-10-10T20:06:27.496Z,10.90
2022-10-10T20:08:55.002Z,10.90
2022-10-10T20:11:23.905Z,10.90
2022-10-10T20:13:55.424Z,10.90
2022-10-10T20:16:26.921Z,10.80
2022-10-10T20:18:54.774Z,10.80
2022-10-10T20:21:24.591Z,10.80
2022-10-10T20:23:51.662Z,10.90
2022-10-10T20:26:22.257Z,10.80
2022-10-10T20:28:52.806Z,10.80
2022-10-10T20:31:25.896Z,10.80
2022-10-10T20:33:55.309Z,10.80
2022-10-10T20:36:23.413Z,10.80
2022-10-10T20:39:02.479Z,10.70
2022-10-10T20:41:32.611Z,10.70
2022-10-10T20:44:01.626Z,10.70
2022-10-10T20:46:34.557Z,10.70
2022-10-10T20:49:03.524Z,10.70
2022-10-10T20:51:30.818Z,10.60
2022-10-10T20:54:00.876Z,10.60
2022-10-10T20:56:29.500Z,10.60
2022-10-10T20:59:00.438Z,10.60
2022-10-10T21:01:30.611Z,10.60
2022-10-10T21:04:08.227Z,10.50
2022-10-10T21:06:36.936Z,10.50
2022-10-10T21:09:09.248Z,10.50
2022-10-10T21:11:39.141Z,10.50
2022-10-10T21:14:06.639Z,10.50
2022-10-10T21:16:39.425Z,10.60
2022-10-10T21:19:11.094Z,10.50
2022-10-10T21:21:40.103Z,10.50
2022-10-10T21:24:11.129Z,10.50
2022-10-10T21:26:38.963Z,10.50
2022-10-10T21:29:07.272Z,10.60
2022-10-10T21:31:39.325Z,10.60
2022-10-10T21:34:08.504Z,10.60
2022-10-10T21:36:37.085Z,10.60
2022-10-10T21:39:09.278Z,10.60
2022-10-10T21:41:38.439Z,10.60
2022-10-10T21:44:09.753Z,10.50
2022-10-10T21:46:37.359Z,10.60
2022-10-10T21:49:11.074Z,10.50
2022-10-10T21:51:45.414Z,10.60
2022-10-10T21:54:13.695Z,10.50
2022-10-10T21:56:41.396Z,10.60
2022-10-10T21:59:08.576Z,10.50
2022-10-10T22:01:37.580Z,10.60
2022-10-10T22:04:05.080Z,10.60
2022-10-10T22:06:32.249Z,10.50
2022-10-10T22:09:01.745Z,10.60
2022-10-10T22:11:30.477Z,10.60
2022-10-10T22:14:02.145Z,10.60
2022-10-10T22:16:34.298Z,10.60
2022-10-10T22:19:02.768Z,10.60
2022-10-10T22:21:35.023Z,10.60
2022-10-10T22:24:07.293Z,10.60
2022-10-10T22:26:35.681Z,10.60
2022-10-10T22:29:05.831Z,10.60
2022-10-10T22:31:35.520Z,10.70
